createdAt,value
2022-08-28T00:00:19.950Z,3.88
2022-08-28T00:03:22.266Z,3.50
2022-08-28T00:09:26.109Z,3.60
2022-08-28T00:12:28.125Z,3.65
2022-08-28T00:15:33.179Z,3.65
2022-08-28T00:18:35.348Z,3.83
2022-08-28T00:21:37.698Z,3.40
2022-08-28T00:27:53.461Z,3.10
2022-08-28T00:31:01.947Z,3.40
2022-08-28T00:34:04.347Z,3.60
2022-08-28T00:40:09.274Z,3.20
2022-08-28T00:43:25.104Z,3.33
2022-08-28T00:46:27.125Z,3.00
2022-08-28T00:49:32.852Z,3.38
2022-08-28T00:52:35.747Z,3.25
2022-08-28T00:55:37.837Z,3.35
2022-08-28T00:58:42.232Z,3.20
2022-08-28T01:01:47.246Z,3.38
2022-08-28T01:04:50.847Z,3.38
2022-08-28T01:07:53.088Z,3.25
2022-08-28T01:14:06.282Z,3.47
2022-08-28T01:17:10.125Z,3.63
2022-08-28T01:20:17.493Z,3.55
2022-08-28T01:23:19.384Z,3.20
2022-08-28T01:26:21.967Z,3.45
2022-08-28T01:29:24.076Z,3.60
2022-08-28T01:32:34.592Z,3.22
2022-08-28T01:35:39.921Z,3.50
2022-08-28T01:38:43.815Z,3.53
2022-08-28T01:41:48.097Z,3.25
2022-08-28T01:44:50.379Z,3.50
2022-08-28T01:47:52.423Z,3.72
2022-08-28T01:50:55.584Z,3.50
2022-08-28T01:53:57.661Z,3.85
2022-08-28T01:56:59.662Z,3.30
2022-08-28T02:00:01.825Z,4.05
2022-08-28T02:03:13.958Z,4.00
2022-08-28T02:06:16.870Z,3.63
2022-08-28T02:09:19.347Z,3.90
2022-08-28T02:12:21.229Z,3.80
2022-08-28T02:15:25.581Z,3.72
2022-08-28T02:18:27.823Z,3.75
2022-08-28T02:21:29.838Z,4.35
2022-08-28T02:24:31.760Z,3.90
2022-08-28T02:27:34.147Z,4.25
2022-08-28T02:33:44.837Z,4.38
2022-08-28T02:36:47.529Z,4.43
2022-08-28T02:39:49.507Z,4.40
2022-08-28T02:42:53.719Z,4.32
2022-08-28T02:45:55.705Z,3.85
2022-08-28T02:48:57.953Z,4.53
2022-08-28T02:51:59.946Z,4.57
2022-08-28T02:55:02.186Z,4.20
2022-08-28T02:58:04.227Z,3.90
2022-08-28T03:01:10.192Z,4.10
2022-08-28T03:04:12.725Z,4.35
2022-08-28T03:10:18.509Z,3.90
2022-08-28T03:13:23.084Z,4.55
2022-08-28T03:16:30.253Z,4.18
2022-08-28T03:19:32.710Z,4.50
2022-08-28T03:26:05.700Z,5.00
2022-08-28T03:29:07.762Z,4.80
2022-08-28T03:32:09.718Z,4.72
2022-08-28T03:35:12.466Z,4.47
2022-08-28T03:38:14.565Z,4.80
2022-08-28T03:41:20.446Z,4.30
2022-08-28T03:44:22.544Z,4.30
2022-08-28T03:47:24.803Z,4.82
2022-08-28T03:50:26.812Z,4.40
2022-08-28T03:53:31.415Z,5.20
2022-08-28T03:56:33.638Z,5.00
2022-08-28T03:59:35.929Z,4.53
2022-08-28T04:05:41.505Z,4.65
2022-08-28T04:08:43.551Z,5.10
2022-08-28T04:11:45.434Z,5.07
2022-08-28T04:14:47.772Z,5.90
2022-08-28T04:21:03.338Z,5.43
2022-08-28T04:24:09.390Z,6.15
2022-08-28T04:27:11.688Z,5.90
2022-08-28T04:30:13.763Z,6.10
2022-08-28T04:33:15.798Z,6.35
2022-08-28T04:36:18.562Z,6.82
2022-08-28T04:39:20.645Z,6.90
2022-08-28T04:42:22.804Z,7.45
2022-08-28T04:45:24.919Z,7.68
2022-08-28T04:48:27.684Z,8.63
2022-08-28T04:51:29.921Z,7.43
2022-08-28T04:54:35.312Z,8.00
2022-08-28T04:57:37.313Z,8.13
2022-08-28T05:00:45.378Z,8.43
2022-08-28T05:03:49.063Z,8.23
2022-08-28T05:06:51.026Z,10.38
2022-08-28T05:09:54.591Z,9.75
2022-08-28T05:12:56.533Z,10.73
2022-08-28T05:15:58.674Z,10.05
2022-08-28T05:19:02.248Z,14.30
2022-08-28T05:22:04.649Z,15.10
2022-08-28T05:28:11.878Z,10.43
2022-08-28T05:31:17.662Z,42.63
2022-08-28T05:34:20.878Z,18.83
2022-08-28T05:37:23.277Z,19.08
2022-08-28T05:40:25.397Z,15.00
2022-08-28T05:43:27.494Z,19.95
2022-08-28T05:46:29.943Z,19.63
2022-08-28T05:52:37.351Z,18.38
2022-08-28T05:55:42.564Z,19.70
2022-08-28T05:58:44.762Z,18.83
2022-08-28T06:01:49.096Z,18.83
2022-08-28T06:04:51.536Z,21.25
2022-08-28T06:10:56.587Z,16.75
2022-08-28T06:14:03.634Z,14.88
2022-08-28T06:17:05.986Z,15.73
2022-08-28T06:23:12.029Z,15.83
2022-08-28T06:26:14.072Z,16.27
2022-08-28T06:29:21.104Z,15.07
2022-08-28T06:32:24.029Z,14.88
2022-08-28T06:35:26.045Z,14.98
2022-08-28T06:38:28.109Z,15.10
2022-08-28T06:41:32.201Z,14.27
2022-08-28T06:44:34.188Z,14.02
2022-08-28T06:47:36.318Z,13.82
2022-08-28T06:50:42.315Z,14.18
2022-08-28T06:53:45.866Z,13.90
2022-08-28T06:56:47.764Z,14.57
2022-08-28T06:59:49.737Z,13.77
2022-08-28T07:02:51.730Z,14.00
2022-08-28T07:06:01.984Z,14.13
2022-08-28T07:09:06.870Z,12.77
2022-08-28T07:12:09.537Z,13.52
2022-08-28T07:15:11.676Z,13.82
2022-08-28T07:18:14.458Z,12.75
2022-08-28T07:21:16.616Z,12.80
2022-08-28T07:24:18.984Z,12.65
2022-08-28T07:30:23.995Z,13.80
2022-08-28T07:33:26.987Z,14.27
2022-08-28T07:36:30.162Z,24.88
2022-08-28T07:39:32.639Z,32.53
2022-08-28T07:42:53.832Z,34.65
2022-08-28T07:46:05.438Z,19.75
2022-08-28T07:49:09.050Z,16.43
2022-08-28T07:52:12.412Z,16.05
2022-08-28T07:55:15.437Z,18.67
2022-08-28T07:58:19.009Z,16.25
2022-08-28T08:01:20.981Z,15.65
2022-08-28T08:04:24.043Z,16.00
2022-08-28T08:07:25.993Z,14.82
2022-08-28T08:10:28.065Z,15.38
2022-08-28T08:13:38.467Z,15.60
2022-08-28T08:16:43.793Z,17.75
2022-08-28T08:19:45.753Z,15.50
2022-08-28T08:22:47.757Z,15.35
2022-08-28T08:26:00.287Z,16.27
2022-08-28T08:29:02.488Z,14.82
2022-08-28T08:32:10.545Z,14.43
2022-08-28T08:35:13.058Z,14.40
2022-08-28T08:38:15.345Z,13.45
2022-08-28T08:41:28.649Z,14.50
2022-08-28T08:44:42.724Z,14.48
2022-08-28T08:47:51.799Z,14.50
2022-08-28T08:50:55.516Z,14.38
2022-08-28T08:54:06.256Z,14.68
2022-08-28T08:57:12.615Z,16.15
2022-08-28T09:00:16.353Z,12.68
2022-08-28T09:03:25.813Z,12.98
2022-08-28T09:06:51.605Z,12.48
2022-08-28T09:09:58.276Z,13.68
2022-08-28T09:13:10.510Z,12.40
2022-08-28T09:16:32.042Z,11.70
2022-08-28T09:19:37.031Z,12.18
2022-08-28T09:22:44.674Z,10.60
2022-08-28T09:25:51.396Z,11.95
2022-08-28T09:29:23.884Z,10.98
2022-08-28T09:32:30.266Z,10.88
2022-08-28T09:35:35.300Z,11.05
2022-08-28T09:38:39.156Z,11.85
2022-08-28T09:42:11.506Z,11.10
2022-08-28T09:45:23.064Z,12.23
2022-08-28T09:48:43.483Z,10.57
2022-08-28T09:51:46.166Z,10.57
2022-08-28T09:54:49.739Z,11.20
2022-08-28T09:57:57.700Z,10.90
2022-08-28T10:01:24.825Z,10.80
2022-08-28T10:05:09.664Z,9.73
2022-08-28T10:08:45.038Z,10.60
2022-08-28T10:11:52.258Z,9.23
2022-08-28T10:14:59.774Z,9.90
2022-08-28T10:18:30.751Z,9.57
2022-08-28T10:21:50.817Z,10.82
2022-08-28T10:25:16.562Z,11.23
2022-08-28T10:28:56.743Z,9.30
2022-08-28T10:32:10.520Z,9.30
2022-08-28T10:35:21.333Z,10.13
2022-08-28T10:38:35.068Z,10.93
2022-08-28T10:41:49.353Z,13.05
2022-08-28T10:45:06.213Z,10.93
2022-08-28T10:48:22.684Z,11.48
2022-08-28T10:52:03.068Z,10.27
2022-08-28T10:55:16.943Z,17.10
2022-08-28T10:58:24.015Z,11.85
2022-08-28T11:01:33.329Z,17.35
2022-08-28T11:04:35.596Z,18.25
2022-08-28T11:10:52.031Z,10.82
2022-08-28T11:13:59.781Z,10.38
2022-08-28T11:17:10.901Z,9.73
2022-08-28T11:20:24.942Z,10.13
2022-08-28T11:24:00.743Z,8.90
2022-08-28T11:27:21.696Z,9.30
2022-08-28T11:30:35.566Z,8.98
2022-08-28T11:34:00.233Z,9.57
2022-08-28T11:37:03.017Z,8.77
2022-08-28T11:40:51.120Z,7.82
2022-08-28T11:43:59.743Z,7.85
2022-08-28T11:47:49.782Z,7.72
2022-08-28T11:51:06.533Z,7.00
2022-08-28T11:54:20.867Z,7.43
2022-08-28T11:57:28.808Z,7.72
2022-08-28T12:00:58.067Z,7.50
2022-08-28T12:04:18.581Z,7.18
2022-08-28T12:07:22.968Z,7.00
2022-08-28T12:10:27.768Z,6.97
2022-08-28T12:13:52.215Z,6.78
2022-08-28T12:16:59.881Z,7.05
2022-08-28T12:20:18.648Z,6.93
2022-08-28T12:23:23.668Z,7.35
2022-08-28T12:26:30.254Z,6.97
2022-08-28T12:29:38.688Z,6.53
2022-08-28T12:32:48.000Z,6.35
2022-08-28T12:35:50.325Z,6.40
2022-08-28T12:38:54.821Z,6.95
2022-08-28T12:41:57.838Z,6.40
2022-08-28T12:45:03.082Z,7.30
2022-08-28T12:48:18.539Z,6.47
2022-08-28T12:51:26.454Z,6.13
2022-08-28T12:54:30.077Z,6.93
2022-08-28T12:57:33.941Z,6.35
2022-08-28T13:00:48.022Z,6.85
2022-08-28T13:03:57.205Z,6.35
2022-08-28T13:07:19.316Z,7.28
2022-08-28T13:10:29.929Z,7.05
2022-08-28T13:13:47.271Z,6.88
2022-08-28T13:16:49.258Z,7.00
2022-08-28T13:26:07.620Z,7.15
2022-08-28T13:29:22.038Z,7.55
2022-08-28T13:32:25.248Z,6.63
2022-08-28T13:35:27.155Z,7.20
2022-08-28T13:38:29.332Z,6.68
2022-08-28T13:41:32.924Z,6.75
2022-08-28T13:44:53.326Z,7.20
2022-08-28T13:47:55.817Z,7.85
2022-08-28T13:51:04.815Z,6.20
2022-08-28T13:54:07.172Z,6.88
2022-08-28T14:00:12.459Z,7.90
2022-08-28T14:03:33.711Z,8.32
2022-08-28T14:06:35.709Z,7.45
2022-08-28T14:12:43.231Z,6.78
2022-08-28T14:15:45.825Z,6.90
2022-08-28T14:18:47.806Z,6.82
2022-08-28T14:24:51.605Z,6.47
2022-08-28T14:27:55.823Z,5.75
2022-08-28T14:30:57.799Z,6.93
2022-08-28T14:37:02.373Z,7.53
2022-08-28T14:43:12.171Z,8.60
2022-08-28T14:46:29.575Z,10.60
2022-08-28T14:49:33.381Z,10.50
2022-08-28T14:52:35.554Z,10.10
2022-08-28T14:55:42.138Z,11.27
2022-08-28T14:58:44.493Z,6.80
2022-08-28T15:04:49.621Z,8.73
2022-08-28T15:07:51.689Z,9.75
2022-08-28T15:10:57.842Z,8.57
2022-08-28T15:14:03.957Z,8.00
2022-08-28T15:17:06.566Z,8.68
2022-08-28T15:20:11.833Z,8.70
2022-08-28T15:23:16.323Z,9.00
2022-08-28T15:26:22.351Z,7.85
2022-08-28T15:29:24.418Z,8.95
2022-08-28T15:35:30.527Z,6.85
2022-08-28T15:38:52.511Z,7.03
2022-08-28T15:41:55.986Z,7.13
2022-08-28T15:45:00.747Z,7.40
2022-08-28T15:48:03.541Z,6.88
2022-08-28T15:51:05.662Z,6.72
2022-08-28T15:54:08.250Z,7.43
2022-08-28T15:57:10.308Z,7.25
2022-08-28T16:03:21.831Z,7.43
2022-08-28T16:06:28.977Z,6.93
2022-08-28T16:09:31.721Z,7.78
2022-08-28T16:12:34.778Z,7.93
2022-08-28T16:15:36.767Z,7.80
2022-08-28T16:18:39.540Z,7.68
2022-08-28T16:21:42.407Z,7.25
2022-08-28T16:24:46.193Z,6.65
2022-08-28T16:27:48.104Z,6.75
2022-08-28T16:30:50.336Z,6.45
2022-08-28T16:33:53.670Z,5.13
2022-08-28T16:36:56.142Z,4.95
2022-08-28T16:40:01.457Z,5.00
2022-08-28T16:43:04.722Z,5.13
2022-08-28T16:46:13.614Z,4.50
2022-08-28T16:49:15.521Z,4.80
2022-08-28T16:52:17.649Z,3.80
2022-08-28T16:55:21.400Z,3.38
2022-08-28T16:58:23.930Z,3.40
2022-08-28T17:01:26.709Z,4.03
2022-08-28T17:04:30.489Z,3.30
2022-08-28T17:07:32.634Z,3.75
2022-08-28T17:10:35.513Z,3.83
2022-08-28T17:13:38.109Z,4.20
2022-08-28T17:16:42.014Z,4.03
2022-08-28T17:19:44.071Z,3.75
2022-08-28T17:22:47.059Z,3.58
2022-08-28T17:25:52.303Z,3.47
2022-08-28T17:28:56.745Z,3.17
2022-08-28T17:32:14.540Z,3.00
2022-08-28T17:35:18.055Z,2.97
2022-08-28T17:38:22.499Z,3.28
2022-08-28T17:41:25.417Z,3.60
2022-08-28T17:44:31.132Z,3.95
2022-08-28T17:47:36.029Z,3.53
2022-08-28T17:50:43.895Z,3.83
2022-08-28T17:53:47.798Z,4.15
2022-08-28T17:56:55.097Z,4.25
2022-08-28T18:00:05.095Z,3.70
2022-08-28T18:03:18.155Z,3.83
2022-08-28T18:06:20.643Z,3.22
2022-08-28T18:09:24.990Z,3.70
2022-08-28T18:12:28.117Z,3.80
2022-08-28T18:15:33.132Z,3.30
2022-08-28T18:18:39.728Z,3.80
2022-08-28T18:21:43.823Z,3.67
2022-08-28T18:24:50.447Z,4.78
2022-08-28T18:27:52.942Z,3.72
2022-08-28T18:30:59.971Z,4.38
2022-08-28T18:34:06.351Z,3.95
2022-08-28T18:37:15.589Z,3.97
2022-08-28T18:40:33.152Z,4.45
2022-08-28T18:43:39.603Z,4.38
2022-08-28T18:46:45.543Z,5.07
2022-08-28T18:49:47.604Z,4.47
2022-08-28T18:52:51.684Z,4.28
2022-08-28T18:55:56.740Z,3.95
2022-08-28T18:59:05.297Z,4.18
2022-08-28T19:02:07.989Z,3.78
2022-08-28T19:05:12.274Z,4.63
2022-08-28T19:08:18.807Z,3.75
2022-08-28T19:11:22.936Z,3.97
2022-08-28T19:14:27.427Z,4.43
2022-08-28T19:17:43.168Z,3.90
2022-08-28T19:20:46.366Z,4.97
2022-08-28T19:23:55.784Z,4.10
2022-08-28T19:27:03.349Z,4.57
2022-08-28T19:30:08.725Z,4.72
2022-08-28T19:33:12.669Z,3.95
2022-08-28T19:36:15.813Z,4.43
2022-08-28T19:39:20.721Z,4.45
2022-08-28T19:42:25.144Z,4.90
2022-08-28T19:45:27.384Z,4.75
2022-08-28T19:51:44.680Z,5.05
2022-08-28T19:54:47.240Z,5.15
2022-08-28T19:57:52.253Z,4.90
2022-08-28T20:00:54.220Z,4.65
2022-08-28T20:03:57.003Z,4.55
2022-08-28T20:07:02.993Z,4.93
2022-08-28T20:10:06.052Z,4.50
2022-08-28T20:13:08.276Z,4.32
2022-08-28T20:19:13.282Z,4.10
2022-08-28T20:22:18.079Z,3.65
2022-08-28T20:25:20.323Z,4.10
2022-08-28T20:31:24.193Z,3.47
2022-08-28T20:34:26.426Z,4.00
2022-08-28T20:37:29.023Z,3.35
2022-08-28T20:40:31.033Z,3.78
2022-08-28T20:43:36.096Z,3.30
2022-08-28T20:46:41.832Z,3.53
2022-08-28T20:49:44.464Z,3.10
2022-08-28T20:55:48.199Z,3.20
2022-08-28T20:58:50.324Z,3.28
2022-08-28T21:01:56.206Z,3.40
2022-08-28T21:04:58.333Z,3.22
2022-08-28T21:08:01.676Z,3.33
2022-08-28T21:11:09.115Z,3.22
2022-08-28T21:14:21.807Z,3.45
2022-08-28T21:17:29.624Z,3.15
2022-08-28T21:20:32.704Z,3.38
2022-08-28T21:26:45.407Z,3.80
2022-08-28T21:29:47.950Z,3.50
2022-08-28T21:32:51.227Z,3.63
2022-08-28T21:35:54.871Z,3.30
2022-08-28T21:38:58.518Z,3.47
2022-08-28T21:42:00.829Z,3.90
2022-08-28T21:48:08.368Z,3.90
2022-08-28T21:51:17.370Z,3.55
2022-08-28T21:54:19.806Z,3.80
2022-08-28T22:00:24.188Z,3.60
2022-08-28T22:03:27.770Z,3.70
2022-08-28T22:06:29.981Z,3.40
2022-08-28T22:12:34.177Z,4.05
2022-08-28T22:15:36.225Z,3.47
2022-08-28T22:18:38.370Z,3.72
2022-08-28T22:22:01.030Z,5.60
2022-08-28T22:28:06.415Z,5.95
2022-08-28T22:31:08.443Z,5.43
2022-08-28T22:34:10.495Z,5.13
2022-08-28T22:37:14.574Z,5.55
2022-08-28T22:40:16.754Z,5.50
2022-08-28T22:43:19.499Z,5.32
2022-08-28T22:46:21.841Z,5.78
2022-08-28T22:52:27.213Z,6.50
2022-08-28T22:55:32.333Z,5.50
2022-08-28T22:58:35.094Z,4.90
2022-08-28T23:01:38.597Z,5.57
2022-08-28T23:04:40.639Z,5.85
2022-08-28T23:07:43.168Z,5.60
2022-08-28T23:14:01.198Z,6.72
2022-08-28T23:17:03.339Z,6.90
2022-08-28T23:20:08.372Z,6.68
2022-08-28T23:23:12.772Z,7.25
2022-08-28T23:26:16.488Z,7.53
2022-08-28T23:29:18.540Z,8.15
2022-08-28T23:32:20.785Z,8.20
2022-08-28T23:35:23.417Z,8.07
2022-08-28T23:38:25.681Z,8.93
2022-08-28T23:41:28.174Z,8.25
2022-08-28T23:44:30.376Z,8.63
2022-08-28T23:47:33.299Z,8.55
2022-08-28T23:50:35.811Z,9.07
2022-08-28T23:53:38.935Z,8.43
2022-08-28T23:56:41.898Z,8.60
2022-08-28T23:59:44.264Z,9.00
